This is the latest recevied weather packets stored in our database for station/object KA7KDX-4. If no packets are shown the sender has not sent any weather packets the latest 10 day(s).
| Time | Temp. | Humidity | Pressure | Rain* | Wind** | Luminosity | Snow |
|---|---|---|---|---|---|---|---|
| 1777185306 | 12.22° C | 36% | 1001.9 hPa | 0 mm | - | - | - |
| 1777185006 | 12.22° C | 36% | 1001.9 hPa | 0 mm | - | - | - |
| 1777184705 | 12.22° C | 36% | 1001.9 hPa | 0 mm | - | - | - |
| 1777184405 | 12.22° C | 36% | 1002 hPa | 0 mm | - | - | - |
| 1777184105 | 12.22° C | 36% | 1002.1 hPa | 0 mm | - | - | - |
| 1777183806 | 11.67° C | 37% | 1002.4 hPa | 0 mm | - | - | - |
| 1777183506 | 11.11° C | 38% | 1002.7 hPa | 0 mm | - | - | - |
| 1777183206 | 11.11° C | 38% | 1002.9 hPa | 0 mm | - | - | - |
| 1777182906 | 11.11° C | 38% | 1003 hPa | 0 mm | - | - | - |
| 1777182606 | 10.56° C | 39% | 1003.2 hPa | 0 mm | - | - | - |
| 1777182306 | 10.56° C | 39% | 1003.3 hPa | 0 mm | - | - | - |
| 1777182005 | 10.56° C | 40% | 1003.4 hPa | 0 mm | - | - | - |
| 1777181705 | 10.56° C | 41% | 1003.5 hPa | 0 mm | - | - | - |
| 1777181405 | 10° C | 41% | 1003.6 hPa | 0 mm | - | - | - |
| 1777181105 | 10° C | 42% | 1003.7 hPa | 0 mm | - | - | - |
| 1777180805 | 10° C | 42% | 1003.7 hPa | 0 mm | - | - | - |
| 1777180506 | 10.56° C | 41% | 1003.6 hPa | 0 mm | - | - | - |
| 1777180206 | 10.56° C | 40% | 1003.4 hPa | 0 mm | - | - | - |
| 1777179906 | 11.11° C | 40% | 1003.4 hPa | 0 mm | - | - | - |
| 1777179605 | 11.11° C | 40% | 1003.3 hPa | 0 mm | - | - | - |
| 1777179306 | 11.11° C | 39% | 1003.3 hPa | 0 mm | - | - | - |
| 1777179005 | 11.11° C | 40% | 1003.5 hPa | 0 mm | - | - | - |
| 1777178705 | 11.11° C | 39% | 1003.4 hPa | 0 mm | - | - | - |
| 1777178405 | 11.11° C | 39% | 1003.5 hPa | 0 mm | - | - | - |
| 1777178105 | 10.56° C | 40% | 1003.7 hPa | 0 mm | - | - | - |
* Rain latest hour (hover to see other rain measurements)
** Current wind speed in m/s (hover to see current wind gust speed)